sensor_id;sensor_type;location;lat;lon;timestamp;P1;durP1;ratioP1;P2;durP2;ratioP2
51036;SDS011;37064;59.346;18.058;2023-09-19T00:00:05;7.90;;;3.70;;
51036;SDS011;37064;59.346;18.058;2023-09-19T00:02:31;19.15;;;6.07;;
51036;SDS011;37064;59.346;18.058;2023-09-19T00:04:58;7.47;;;3.80;;
51036;SDS011;37064;59.346;18.058;2023-09-19T00:07:24;8.20;;;4.07;;
51036;SDS011;37064;59.346;18.058;2023-09-19T00:09:50;7.90;;;3.80;;
51036;SDS011;37064;59.346;18.058;2023-09-19T00:12:16;13.43;;;4.43;;
51036;SDS011;37064;59.346;18.058;2023-09-19T00:14:42;8.18;;;3.92;;
51036;SDS011;37064;59.346;18.058;2023-09-19T00:17:08;7.80;;;4.15;;
51036;SDS011;37064;59.346;18.058;2023-09-19T00:19:35;11.07;;;4.20;;
51036;SDS011;37064;59.346;18.058;2023-09-19T00:22:02;5.78;;;3.75;;
51036;SDS011;37064;59.346;18.058;2023-09-19T00:24:28;9.50;;;4.28;;
51036;SDS011;37064;59.346;18.058;2023-09-19T00:26:54;15.75;;;5.10;;
51036;SDS011;37064;59.346;18.058;2023-09-19T00:29:21;11.52;;;4.45;;
51036;SDS011;37064;59.346;18.058;2023-09-19T00:31:48;11.48;;;4.57;;
51036;SDS011;37064;59.346;18.058;2023-09-19T00:34:15;8.43;;;4.90;;
51036;SDS011;37064;59.346;18.058;2023-09-19T00:36:41;11.23;;;5.07;;
51036;SDS011;37064;59.346;18.058;2023-09-19T00:39:08;12.65;;;4.50;;
51036;SDS011;37064;59.346;18.058;2023-09-19T00:41:35;11.75;;;5.38;;
51036;SDS011;37064;59.346;18.058;2023-09-19T00:44:02;11.27;;;4.07;;
51036;SDS011;37064;59.346;18.058;2023-09-19T00:46:29;9.57;;;5.65;;
51036;SDS011;37064;59.346;18.058;2023-09-19T00:48:55;7.80;;;4.88;;
51036;SDS011;37064;59.346;18.058;2023-09-19T00:51:22;9.52;;;5.38;;
51036;SDS011;37064;59.346;18.058;2023-09-19T00:53:50;11.45;;;5.75;;
51036;SDS011;37064;59.346;18.058;2023-09-19T00:56:17;13.80;;;5.35;;
51036;SDS011;37064;59.346;18.058;2023-09-19T00:58:44;11.00;;;6.15;;
51036;SDS011;37064;59.346;18.058;2023-09-19T01:01:11;11.10;;;5.45;;
51036;SDS011;37064;59.346;18.058;2023-09-19T01:03:39;12.35;;;5.72;;
51036;SDS011;37064;59.346;18.058;2023-09-19T01:06:05;11.52;;;6.78;;
51036;SDS011;37064;59.346;18.058;2023-09-19T01:08:33;11.95;;;6.13;;
51036;SDS011;37064;59.346;18.058;2023-09-19T01:11:17;10.60;;;5.70;;
51036;SDS011;37064;59.346;18.058;2023-09-19T01:31:49;11.55;;;6.15;;
51036;SDS011;37064;59.346;18.058;2023-09-19T01:34:19;12.65;;;7.05;;
51036;SDS011;37064;59.346;18.058;2023-09-19T01:36:45;16.83;;;6.32;;
51036;SDS011;37064;59.346;18.058;2023-09-19T01:39:11;22.13;;;6.68;;
51036;SDS011;37064;59.346;18.058;2023-09-19T01:44:04;11.20;;;6.20;;
51036;SDS011;37064;59.346;18.058;2023-09-19T01:46:35;14.50;;;7.18;;
51036;SDS011;37064;59.346;18.058;2023-09-19T01:50:06;10.55;;;5.88;;
51036;SDS011;37064;59.346;18.058;2023-09-19T01:52:11;15.27;;;6.43;;
51036;SDS011;37064;59.346;18.058;2023-09-19T01:54:56;13.57;;;6.43;;
51036;SDS011;37064;59.346;18.058;2023-09-19T01:57:32;12.75;;;6.70;;
51036;SDS011;37064;59.346;18.058;2023-09-19T02:00:01;12.05;;;6.38;;
51036;SDS011;37064;59.346;18.058;2023-09-19T02:02:33;16.33;;;6.07;;
51036;SDS011;37064;59.346;18.058;2023-09-19T02:05:00;17.48;;;8.30;;
51036;SDS011;37064;59.346;18.058;2023-09-19T02:07:26;15.70;;;6.88;;
51036;SDS011;37064;59.346;18.058;2023-09-19T02:09:52;15.48;;;6.07;;
51036;SDS011;37064;59.346;18.058;2023-09-19T02:12:18;15.20;;;6.85;;
51036;SDS011;37064;59.346;18.058;2023-09-19T02:14:44;11.70;;;6.40;;
51036;SDS011;37064;59.346;18.058;2023-09-19T02:17:10;10.60;;;6.78;;
51036;SDS011;37064;59.346;18.058;2023-09-19T02:19:37;16.30;;;7.30;;
51036;SDS011;37064;59.346;18.058;2023-09-19T02:22:04;12.27;;;6.82;;
51036;SDS011;37064;59.346;18.058;2023-09-19T02:24:35;12.93;;;6.80;;
51036;SDS011;37064;59.346;18.058;2023-09-19T02:27:02;11.90;;;7.30;;
51036;SDS011;37064;59.346;18.058;2023-09-19T02:29:32;15.57;;;8.77;;
51036;SDS011;37064;59.346;18.058;2023-09-19T02:31:59;14.68;;;7.85;;
51036;SDS011;37064;59.346;18.058;2023-09-19T02:34:26;24.35;;;8.57;;
51036;SDS011;37064;59.346;18.058;2023-09-19T02:36:52;10.73;;;7.20;;
51036;SDS011;37064;59.346;18.058;2023-09-19T02:39:19;14.23;;;8.25;;
51036;SDS011;37064;59.346;18.058;2023-09-19T02:41:45;13.25;;;8.77;;
51036;SDS011;37064;59.346;18.058;2023-09-19T02:44:11;11.13;;;7.15;;
51036;SDS011;37064;59.346;18.058;2023-09-19T02:46:37;17.58;;;8.30;;
51036;SDS011;37064;59.346;18.058;2023-09-19T02:49:03;15.65;;;7.55;;
51036;SDS011;37064;59.346;18.058;2023-09-19T02:51:32;13.98;;;8.20;;
51036;SDS011;37064;59.346;18.058;2023-09-19T02:53:59;13.27;;;7.72;;
51036;SDS011;37064;59.346;18.058;2023-09-19T02:56:25;14.48;;;8.90;;
51036;SDS011;37064;59.346;18.058;2023-09-19T02:58:51;14.65;;;9.20;;
51036;SDS011;37064;59.346;18.058;2023-09-19T03:01:18;15.05;;;8.48;;
51036;SDS011;37064;59.346;18.058;2023-09-19T03:03:44;15.75;;;8.95;;
51036;SDS011;37064;59.346;18.058;2023-09-19T03:06:11;15.50;;;9.55;;
51036;SDS011;37064;59.346;18.058;2023-09-19T03:08:38;14.90;;;8.27;;
51036;SDS011;37064;59.346;18.058;2023-09-19T03:11:07;18.20;;;9.23;;
51036;SDS011;37064;59.346;18.058;2023-09-19T03:13:36;15.63;;;8.90;;
51036;SDS011;37064;59.346;18.058;2023-09-19T03:16:03;18.25;;;8.90;;
51036;SDS011;37064;59.346;18.058;2023-09-19T03:18:31;18.40;;;9.70;;
51036;SDS011;37064;59.346;18.058;2023-09-19T03:20:57;14.18;;;8.82;;
51036;SDS011;37064;59.346;18.058;2023-09-19T03:23:25;14.70;;;9.10;;
51036;SDS011;37064;59.346;18.058;2023-09-19T03:25:51;23.95;;;10.75;;
51036;SDS011;37064;59.346;18.058;2023-09-19T03:28:17;15.88;;;9.40;;
51036;SDS011;37064;59.346;18.058;2023-09-19T03:30:45;22.77;;;10.05;;
51036;SDS011;37064;59.346;18.058;2023-09-19T03:33:11;18.85;;;9.82;;
51036;SDS011;37064;59.346;18.058;2023-09-19T03:35:38;17.95;;;10.15;;
51036;SDS011;37064;59.346;18.058;2023-09-19T03:38:05;16.50;;;10.52;;
51036;SDS011;37064;59.346;18.058;2023-09-19T03:40:31;17.02;;;10.10;;
51036;SDS011;37064;59.346;18.058;2023-09-19T03:43:00;20.50;;;11.30;;
51036;SDS011;37064;59.346;18.058;2023-09-19T03:45:26;21.60;;;10.38;;
51036;SDS011;37064;59.346;18.058;2023-09-19T03:47:52;17.88;;;10.30;;
51036;SDS011;37064;59.346;18.058;2023-09-19T03:50:18;17.52;;;10.60;;
51036;SDS011;37064;59.346;18.058;2023-09-19T03:52:44;18.08;;;11.18;;
51036;SDS011;37064;59.346;18.058;2023-09-19T03:55:10;22.65;;;10.82;;
51036;SDS011;37064;59.346;18.058;2023-09-19T03:57:37;19.80;;;11.40;;
51036;SDS011;37064;59.346;18.058;2023-09-19T04:00:03;20.70;;;11.35;;
51036;SDS011;37064;59.346;18.058;2023-09-19T04:02:38;18.60;;;11.65;;
51036;SDS011;37064;59.346;18.058;2023-09-19T04:05:04;18.35;;;10.80;;
51036;SDS011;37064;59.346;18.058;2023-09-19T04:07:30;19.15;;;10.93;;
51036;SDS011;37064;59.346;18.058;2023-09-19T04:09:56;19.10;;;11.63;;
51036;SDS011;37064;59.346;18.058;2023-09-19T04:12:22;22.92;;;12.10;;
51036;SDS011;37064;59.346;18.058;2023-09-19T04:14:48;17.63;;;11.88;;
51036;SDS011;37064;59.346;18.058;2023-09-19T04:17:15;17.77;;;11.25;;
51036;SDS011;37064;59.346;18.058;2023-09-19T04:19:41;16.77;;;10.82;;
51036;SDS011;37064;59.346;18.058;2023-09-19T04:22:07;22.65;;;11.38;;
51036;SDS011;37064;59.346;18.058;2023-09-19T04:24:34;20.42;;;11.60;;
51036;SDS011;37064;59.346;18.058;2023-09-19T04:27:00;20.92;;;11.65;;
51036;SDS011;37064;59.346;18.058;2023-09-19T04:29:26;18.25;;;11.63;;
51036;SDS011;37064;59.346;18.058;2023-09-19T04:31:54;17.88;;;11.07;;
51036;SDS011;37064;59.346;18.058;2023-09-19T04:34:21;17.75;;;11.55;;
51036;SDS011;37064;59.346;18.058;2023-09-19T04:36:48;20.02;;;10.88;;
51036;SDS011;37064;59.346;18.058;2023-09-19T04:39:14;19.35;;;11.82;;
51036;SDS011;37064;59.346;18.058;2023-09-19T04:41:41;20.02;;;12.20;;
51036;SDS011;37064;59.346;18.058;2023-09-19T04:44:07;19.05;;;11.63;;
51036;SDS011;37064;59.346;18.058;2023-09-19T04:46:34;21.45;;;11.48;;
51036;SDS011;37064;59.346;18.058;2023-09-19T04:49:00;17.27;;;10.88;;
51036;SDS011;37064;59.346;18.058;2023-09-19T04:51:27;21.40;;;12.25;;
51036;SDS011;37064;59.346;18.058;2023-09-19T04:53:58;17.30;;;11.63;;
51036;SDS011;37064;59.346;18.058;2023-09-19T04:56:23;20.45;;;11.93;;
51036;SDS011;37064;59.346;18.058;2023-09-19T04:58:49;20.27;;;12.95;;
51036;SDS011;37064;59.346;18.058;2023-09-19T05:01:15;19.45;;;12.18;;
51036;SDS011;37064;59.346;18.058;2023-09-19T05:03:41;21.92;;;12.55;;
51036;SDS011;37064;59.346;18.058;2023-09-19T05:06:07;17.75;;;12.07;;
51036;SDS011;37064;59.346;18.058;2023-09-19T05:08:34;18.52;;;13.20;;
51036;SDS011;37064;59.346;18.058;2023-09-19T05:11:01;20.27;;;13.02;;
51036;SDS011;37064;59.346;18.058;2023-09-19T05:13:27;21.73;;;12.07;;
51036;SDS011;37064;59.346;18.058;2023-09-19T05:15:53;25.23;;;12.65;;
51036;SDS011;37064;59.346;18.058;2023-09-19T05:18:19;18.90;;;11.55;;
51036;SDS011;37064;59.346;18.058;2023-09-19T05:20:46;22.38;;;10.98;;
51036;SDS011;37064;59.346;18.058;2023-09-19T05:23:14;22.75;;;11.48;;
51036;SDS011;37064;59.346;18.058;2023-09-19T05:25:40;19.35;;;11.38;;
51036;SDS011;37064;59.346;18.058;2023-09-19T05:28:08;18.73;;;11.93;;
51036;SDS011;37064;59.346;18.058;2023-09-19T05:30:36;18.30;;;12.18;;
51036;SDS011;37064;59.346;18.058;2023-09-19T05:33:06;18.45;;;11.60;;
51036;SDS011;37064;59.346;18.058;2023-09-19T05:35:32;23.35;;;11.82;;
51036;SDS011;37064;59.346;18.058;2023-09-19T05:37:58;19.63;;;11.63;;
51036;SDS011;37064;59.346;18.058;2023-09-19T05:40:25;17.67;;;10.60;;
51036;SDS011;37064;59.346;18.058;2023-09-19T05:42:51;19.00;;;12.15;;
51036;SDS011;37064;59.346;18.058;2023-09-19T05:45:17;19.95;;;12.27;;
51036;SDS011;37064;59.346;18.058;2023-09-19T05:47:49;17.35;;;11.63;;
51036;SDS011;37064;59.346;18.058;2023-09-19T05:50:16;15.77;;;12.13;;
51036;SDS011;37064;59.346;18.058;2023-09-19T05:52:43;19.20;;;12.25;;
51036;SDS011;37064;59.346;18.058;2023-09-19T05:55:10;19.95;;;12.55;;
51036;SDS011;37064;59.346;18.058;2023-09-19T05:57:37;17.42;;;11.93;;
51036;SDS011;37064;59.346;18.058;2023-09-19T06:00:09;21.45;;;11.73;;
51036;SDS011;37064;59.346;18.058;2023-09-19T06:02:36;19.60;;;11.40;;
51036;SDS011;37064;59.346;18.058;2023-09-19T06:05:04;18.15;;;12.05;;
51036;SDS011;37064;59.346;18.058;2023-09-19T06:07:31;20.60;;;11.83;;
51036;SDS011;37064;59.346;18.058;2023-09-19T06:10:01;21.33;;;12.50;;
51036;SDS011;37064;59.346;18.058;2023-09-19T06:12:30;19.70;;;11.90;;
51036;SDS011;37064;59.346;18.058;2023-09-19T06:14:58;20.42;;;11.25;;
51036;SDS011;37064;59.346;18.058;2023-09-19T06:17:25;20.98;;;12.25;;
51036;SDS011;37064;59.346;18.058;2023-09-19T06:19:52;17.45;;;12.05;;
51036;SDS011;37064;59.346;18.058;2023-09-19T06:22:18;23.58;;;12.68;;
51036;SDS011;37064;59.346;18.058;2023-09-19T06:24:44;18.35;;;11.52;;
51036;SDS011;37064;59.346;18.058;2023-09-19T06:27:12;19.60;;;12.15;;
51036;SDS011;37064;59.346;18.058;2023-09-19T06:29:38;21.58;;;12.50;;
51036;SDS011;37064;59.346;18.058;2023-09-19T06:32:07;19.02;;;11.85;;
51036;SDS011;37064;59.346;18.058;2023-09-19T06:34:35;15.82;;;12.15;;
51036;SDS011;37064;59.346;18.058;2023-09-19T06:37:01;22.50;;;12.18;;
51036;SDS011;37064;59.346;18.058;2023-09-19T06:39:28;19.52;;;12.05;;
51036;SDS011;37064;59.346;18.058;2023-09-19T06:41:54;20.25;;;12.23;;
51036;SDS011;37064;59.346;18.058;2023-09-19T06:44:20;21.35;;;12.00;;
51036;SDS011;37064;59.346;18.058;2023-09-19T07:57:38;18.00;;;12.18;;
51036;SDS011;37064;59.346;18.058;2023-09-19T08:00:06;15.75;;;11.82;;
51036;SDS011;37064;59.346;18.058;2023-09-19T08:02:35;18.67;;;12.07;;
51036;SDS011;37064;59.346;18.058;2023-09-19T08:05:05;16.23;;;10.95;;
51036;SDS011;37064;59.346;18.058;2023-09-19T08:07:41;17.90;;;9.82;;
51036;SDS011;37064;59.346;18.058;2023-09-19T08:10:08;20.63;;;11.13;;
51036;SDS011;37064;59.346;18.058;2023-09-19T08:12:44;18.38;;;12.05;;
51036;SDS011;37064;59.346;18.058;2023-09-19T08:15:14;18.90;;;11.55;;
51036;SDS011;37064;59.346;18.058;2023-09-19T08:17:40;16.55;;;10.40;;
51036;SDS011;37064;59.346;18.058;2023-09-19T08:20:06;15.57;;;10.32;;
51036;SDS011;37064;59.346;18.058;2023-09-19T08:22:33;15.30;;;10.60;;
51036;SDS011;37064;59.346;18.058;2023-09-19T08:24:59;16.58;;;10.48;;
51036;SDS011;37064;59.346;18.058;2023-09-19T08:27:29;14.38;;;10.13;;
51036;SDS011;37064;59.346;18.058;2023-09-19T08:29:55;16.85;;;11.20;;
51036;SDS011;37064;59.346;18.058;2023-09-19T08:32:21;14.45;;;9.88;;
51036;SDS011;37064;59.346;18.058;2023-09-19T08:34:49;15.40;;;10.48;;
51036;SDS011;37064;59.346;18.058;2023-09-19T08:37:15;21.33;;;10.75;;
51036;SDS011;37064;59.346;18.058;2023-09-19T08:39:42;14.80;;;9.98;;
51036;SDS011;37064;59.346;18.058;2023-09-19T08:42:09;19.50;;;9.80;;
51036;SDS011;37064;59.346;18.058;2023-09-19T08:44:36;15.20;;;9.75;;
51036;SDS011;37064;59.346;18.058;2023-09-19T08:52:06;15.30;;;10.07;;
51036;SDS011;37064;59.346;18.058;2023-09-19T08:54:34;13.80;;;9.30;;
51036;SDS011;37064;59.346;18.058;2023-09-19T08:57:05;12.68;;;8.75;;
51036;SDS011;37064;59.346;18.058;2023-09-19T08:59:33;18.17;;;8.52;;
51036;SDS011;37064;59.346;18.058;2023-09-19T09:02:00;13.20;;;8.55;;
51036;SDS011;37064;59.346;18.058;2023-09-19T09:04:26;12.80;;;8.05;;
51036;SDS011;37064;59.346;18.058;2023-09-19T09:06:53;13.55;;;8.70;;
51036;SDS011;37064;59.346;18.058;2023-09-19T09:09:20;13.70;;;7.97;;
51036;SDS011;37064;59.346;18.058;2023-09-19T09:11:48;14.07;;;9.02;;
51036;SDS011;37064;59.346;18.058;2023-09-19T09:14:18;13.80;;;6.90;;
51036;SDS011;37064;59.346;18.058;2023-09-19T09:16:44;13.45;;;7.75;;
51036;SDS011;37064;59.346;18.058;2023-09-19T09:19:10;11.63;;;7.20;;
51036;SDS011;37064;59.346;18.058;2023-09-19T09:21:37;15.40;;;6.95;;
51036;SDS011;37064;59.346;18.058;2023-09-19T09:26:50;11.27;;;6.88;;
51036;SDS011;37064;59.346;18.058;2023-09-19T09:29:16;13.82;;;6.72;;
51036;SDS011;37064;59.346;18.058;2023-09-19T09:31:42;13.88;;;7.30;;
51036;SDS011;37064;59.346;18.058;2023-09-19T09:34:08;11.60;;;5.88;;
51036;SDS011;37064;59.346;18.058;2023-09-19T09:39:01;14.57;;;7.13;;
51036;SDS011;37064;59.346;18.058;2023-09-19T09:41:41;10.90;;;6.43;;
51036;SDS011;37064;59.346;18.058;2023-09-19T09:44:14;10.75;;;4.88;;
51036;SDS011;37064;59.346;18.058;2023-09-19T09:46:44;12.57;;;5.28;;
51036;SDS011;37064;59.346;18.058;2023-09-19T09:49:25;9.43;;;4.88;;
51036;SDS011;37064;59.346;18.058;2023-09-19T09:52:02;13.55;;;5.78;;
51036;SDS011;37064;59.346;18.058;2023-09-19T09:55:00;7.60;;;4.93;;
51036;SDS011;37064;59.346;18.058;2023-09-19T09:57:30;7.40;;;4.63;;
51036;SDS011;37064;59.346;18.058;2023-09-19T09:59:58;11.30;;;4.97;;
51036;SDS011;37064;59.346;18.058;2023-09-19T10:02:40;11.88;;;4.93;;
51036;SDS011;37064;59.346;18.058;2023-09-19T10:05:17;11.05;;;4.68;;
51036;SDS011;37064;59.346;18.058;2023-09-19T10:07:52;7.60;;;5.05;;
51036;SDS011;37064;59.346;18.058;2023-09-19T10:13:03;6.40;;;4.38;;
51036;SDS011;37064;59.346;18.058;2023-09-19T10:15:33;8.80;;;4.75;;
51036;SDS011;37064;59.346;18.058;2023-09-19T10:18:01;9.00;;;5.00;;
51036;SDS011;37064;59.346;18.058;2023-09-19T10:20:28;6.93;;;4.45;;
51036;SDS011;37064;59.346;18.058;2023-09-19T10:23:05;8.95;;;4.20;;
51036;SDS011;37064;59.346;18.058;2023-09-19T10:25:38;9.50;;;4.88;;
51036;SDS011;37064;59.346;18.058;2023-09-19T10:28:05;6.13;;;3.85;;
51036;SDS011;37064;59.346;18.058;2023-09-19T10:30:36;7.95;;;4.35;;
51036;SDS011;37064;59.346;18.058;2023-09-19T10:33:07;9.65;;;4.03;;
51036;SDS011;37064;59.346;18.058;2023-09-19T10:35:33;8.88;;;4.40;;
51036;SDS011;37064;59.346;18.058;2023-09-19T10:38:00;7.68;;;4.35;;
51036;SDS011;37064;59.346;18.058;2023-09-19T10:40:27;5.27;;;3.93;;
51036;SDS011;37064;59.346;18.058;2023-09-19T10:43:00;6.22;;;3.22;;
51036;SDS011;37064;59.346;18.058;2023-09-19T10:45:28;7.03;;;4.30;;
51036;SDS011;37064;59.346;18.058;2023-09-19T10:47:56;6.78;;;4.85;;
51036;SDS011;37064;59.346;18.058;2023-09-19T10:50:22;5.53;;;3.70;;
51036;SDS011;37064;59.346;18.058;2023-09-19T10:52:49;7.05;;;3.50;;
51036;SDS011;37064;59.346;18.058;2023-09-19T10:55:23;7.07;;;3.88;;
51036;SDS011;37064;59.346;18.058;2023-09-19T10:57:50;8.18;;;3.80;;
51036;SDS011;37064;59.346;18.058;2023-09-19T11:00:16;7.03;;;3.53;;
51036;SDS011;37064;59.346;18.058;2023-09-19T11:05:32;7.53;;;4.03;;
51036;SDS011;37064;59.346;18.058;2023-09-19T11:07:59;6.35;;;3.35;;
51036;SDS011;37064;59.346;18.058;2023-09-19T11:10:47;10.48;;;3.92;;
51036;SDS011;37064;59.346;18.058;2023-09-19T11:13:23;5.80;;;3.22;;
51036;SDS011;37064;59.346;18.058;2023-09-19T11:18:56;5.95;;;3.97;;
51036;SDS011;37064;59.346;18.058;2023-09-19T11:26:47;6.68;;;3.20;;
51036;SDS011;37064;59.346;18.058;2023-09-19T11:29:29;10.23;;;3.25;;
51036;SDS011;37064;59.346;18.058;2023-09-19T11:31:56;8.45;;;3.13;;
51036;SDS011;37064;59.346;18.058;2023-09-19T11:37:03;5.93;;;2.65;;
51036;SDS011;37064;59.346;18.058;2023-09-19T11:39:29;6.97;;;2.00;;
51036;SDS011;37064;59.346;18.058;2023-09-19T11:41:56;3.83;;;1.92;;
51036;SDS011;37064;59.346;18.058;2023-09-19T11:49:18;3.28;;;1.63;;
51036;SDS011;37064;59.346;18.058;2023-09-19T11:51:50;6.13;;;1.90;;
51036;SDS011;37064;59.346;18.058;2023-09-19T11:54:16;5.30;;;1.05;;
51036;SDS011;37064;59.346;18.058;2023-09-19T11:56:54;4.05;;;1.30;;
51036;SDS011;37064;59.346;18.058;2023-09-19T11:59:20;5.22;;;1.10;;
51036;SDS011;37064;59.346;18.058;2023-09-19T12:01:53;5.25;;;1.25;;
51036;SDS011;37064;59.346;18.058;2023-09-19T12:04:31;3.00;;;1.10;;
51036;SDS011;37064;59.346;18.058;2023-09-19T12:06:58;1.98;;;1.27;;
51036;SDS011;37064;59.346;18.058;2023-09-19T12:09:25;5.88;;;2.42;;
51036;SDS011;37064;59.346;18.058;2023-09-19T12:11:52;4.05;;;1.60;;
51036;SDS011;37064;59.346;18.058;2023-09-19T12:14:22;2.67;;;1.25;;
51036;SDS011;37064;59.346;18.058;2023-09-19T12:16:57;4.28;;;1.20;;
51036;SDS011;37064;59.346;18.058;2023-09-19T12:19:23;9.52;;;1.45;;
51036;SDS011;37064;59.346;18.058;2023-09-19T12:24:23;3.45;;;1.20;;
51036;SDS011;37064;59.346;18.058;2023-09-19T12:26:51;3.47;;;1.20;;
51036;SDS011;37064;59.346;18.058;2023-09-19T12:29:18;3.08;;;0.95;;
51036;SDS011;37064;59.346;18.058;2023-09-19T12:31:52;1.67;;;0.98;;
51036;SDS011;37064;59.346;18.058;2023-09-19T12:34:29;2.38;;;0.80;;
51036;SDS011;37064;59.346;18.058;2023-09-19T12:37:14;7.50;;;1.13;;
51036;SDS011;37064;59.346;18.058;2023-09-19T12:39:50;4.90;;;1.20;;
51036;SDS011;37064;59.346;18.058;2023-09-19T12:42:20;3.10;;;1.20;;
51036;SDS011;37064;59.346;18.058;2023-09-19T12:44:48;6.68;;;0.93;;
51036;SDS011;37064;59.346;18.058;2023-09-19T12:47:20;4.65;;;1.13;;
51036;SDS011;37064;59.346;18.058;2023-09-19T12:52:38;2.97;;;1.00;;
51036;SDS011;37064;59.346;18.058;2023-09-19T12:55:05;6.13;;;1.40;;
51036;SDS011;37064;59.346;18.058;2023-09-19T12:57:37;4.03;;;1.52;;
51036;SDS011;37064;59.346;18.058;2023-09-19T13:00:04;4.10;;;1.33;;
51036;SDS011;37064;59.346;18.058;2023-09-19T13:02:36;3.30;;;1.02;;
51036;SDS011;37064;59.346;18.058;2023-09-19T13:05:03;2.15;;;0.80;;
51036;SDS011;37064;59.346;18.058;2023-09-19T13:07:44;4.18;;;1.35;;
51036;SDS011;37064;59.346;18.058;2023-09-19T13:10:12;3.90;;;1.33;;
51036;SDS011;37064;59.346;18.058;2023-09-19T13:12:41;5.72;;;1.27;;
51036;SDS011;37064;59.346;18.058;2023-09-19T13:15:09;4.18;;;0.90;;
51036;SDS011;37064;59.346;18.058;2023-09-19T13:17:45;3.80;;;1.13;;
51036;SDS011;37064;59.346;18.058;2023-09-19T13:20:20;4.25;;;1.42;;
51036;SDS011;37064;59.346;18.058;2023-09-19T13:22:52;2.95;;;1.55;;
51036;SDS011;37064;59.346;18.058;2023-09-19T13:25:35;4.93;;;1.45;;
51036;SDS011;37064;59.346;18.058;2023-09-19T13:28:01;3.33;;;1.40;;
51036;SDS011;37064;59.346;18.058;2023-09-19T13:30:29;6.05;;;1.10;;
51036;SDS011;37064;59.346;18.058;2023-09-19T13:33:06;3.63;;;1.10;;
51036;SDS011;37064;59.346;18.058;2023-09-19T13:35:32;8.15;;;1.50;;
51036;SDS011;37064;59.346;18.058;2023-09-19T13:37:58;5.28;;;1.90;;
51036;SDS011;37064;59.346;18.058;2023-09-19T13:40:25;4.53;;;1.40;;
51036;SDS011;37064;59.346;18.058;2023-09-19T13:42:55;2.72;;;1.08;;
51036;SDS011;37064;59.346;18.058;2023-09-19T13:45:21;5.30;;;1.38;;
51036;SDS011;37064;59.346;18.058;2023-09-19T13:47:49;6.97;;;1.30;;
51036;SDS011;37064;59.346;18.058;2023-09-19T13:50:16;5.75;;;1.45;;
51036;SDS011;37064;59.346;18.058;2023-09-19T13:52:48;4.03;;;1.85;;
51036;SDS011;37064;59.346;18.058;2023-09-19T13:55:16;7.00;;;1.90;;
51036;SDS011;37064;59.346;18.058;2023-09-19T13:57:45;27.40;;;3.25;;
51036;SDS011;37064;59.346;18.058;2023-09-19T14:00:11;8.57;;;2.95;;
51036;SDS011;37064;59.346;18.058;2023-09-19T14:02:41;5.18;;;1.20;;
51036;SDS011;37064;59.346;18.058;2023-09-19T14:05:09;4.85;;;2.13;;
51036;SDS011;37064;59.346;18.058;2023-09-19T14:07:37;7.25;;;2.03;;
51036;SDS011;37064;59.346;18.058;2023-09-19T14:10:03;6.47;;;2.75;;
51036;SDS011;37064;59.346;18.058;2023-09-19T14:12:32;4.55;;;2.08;;
51036;SDS011;37064;59.346;18.058;2023-09-19T14:14:59;2.55;;;1.00;;
51036;SDS011;37064;59.346;18.058;2023-09-19T14:17:26;3.80;;;1.13;;
51036;SDS011;37064;59.346;18.058;2023-09-19T14:19:53;2.47;;;1.40;;
51036;SDS011;37064;59.346;18.058;2023-09-19T14:22:19;4.88;;;1.20;;
51036;SDS011;37064;59.346;18.058;2023-09-19T14:24:45;3.58;;;1.13;;
51036;SDS011;37064;59.346;18.058;2023-09-19T14:27:11;6.40;;;1.40;;
51036;SDS011;37064;59.346;18.058;2023-09-19T14:29:36;3.58;;;1.08;;
51036;SDS011;37064;59.346;18.058;2023-09-19T14:32:03;2.95;;;0.80;;
51036;SDS011;37064;59.346;18.058;2023-09-19T14:34:29;8.63;;;1.27;;
51036;SDS011;37064;59.346;18.058;2023-09-19T14:36:55;3.53;;;1.08;;
51036;SDS011;37064;59.346;18.058;2023-09-19T14:39:21;5.38;;;1.00;;
51036;SDS011;37064;59.346;18.058;2023-09-19T14:41:48;3.97;;;1.40;;
51036;SDS011;37064;59.346;18.058;2023-09-19T14:44:14;1.55;;;0.82;;
51036;SDS011;37064;59.346;18.058;2023-09-19T14:46:43;1.98;;;0.85;;
51036;SDS011;37064;59.346;18.058;2023-09-19T14:49:10;3.53;;;1.40;;
51036;SDS011;37064;59.346;18.058;2023-09-19T14:51:37;2.55;;;1.20;;
51036;SDS011;37064;59.346;18.058;2023-09-19T14:54:04;2.40;;;1.00;;
51036;SDS011;37064;59.346;18.058;2023-09-19T14:56:32;7.57;;;3.35;;
51036;SDS011;37064;59.346;18.058;2023-09-19T14:58:58;14.43;;;5.25;;
51036;SDS011;37064;59.346;18.058;2023-09-19T15:01:24;5.22;;;1.15;;
51036;SDS011;37064;59.346;18.058;2023-09-19T15:03:50;5.47;;;1.60;;
51036;SDS011;37064;59.346;18.058;2023-09-19T15:06:19;5.47;;;1.58;;
51036;SDS011;37064;59.346;18.058;2023-09-19T15:08:46;3.78;;;1.13;;
51036;SDS011;37064;59.346;18.058;2023-09-19T15:11:16;6.68;;;2.08;;
51036;SDS011;37064;59.346;18.058;2023-09-19T15:13:42;3.05;;;0.68;;
51036;SDS011;37064;59.346;18.058;2023-09-19T15:16:09;3.97;;;1.40;;
51036;SDS011;37064;59.346;18.058;2023-09-19T15:18:38;4.65;;;1.25;;
51036;SDS011;37064;59.346;18.058;2023-09-19T15:21:06;4.50;;;1.33;;
51036;SDS011;37064;59.346;18.058;2023-09-19T15:23:33;5.93;;;1.25;;
51036;SDS011;37064;59.346;18.058;2023-09-19T15:26:00;6.00;;;1.20;;
51036;SDS011;37064;59.346;18.058;2023-09-19T15:28:26;5.63;;;1.70;;
51036;SDS011;37064;59.346;18.058;2023-09-19T15:31:04;4.70;;;1.33;;
51036;SDS011;37064;59.346;18.058;2023-09-19T15:33:31;4.30;;;1.30;;
51036;SDS011;37064;59.346;18.058;2023-09-19T15:36:01;3.75;;;1.00;;
51036;SDS011;37064;59.346;18.058;2023-09-19T15:38:28;4.68;;;1.00;;
51036;SDS011;37064;59.346;18.058;2023-09-19T15:40:54;2.60;;;0.80;;
51036;SDS011;37064;59.346;18.058;2023-09-19T15:43:20;3.03;;;1.00;;
51036;SDS011;37064;59.346;18.058;2023-09-19T15:45:47;3.65;;;1.10;;
51036;SDS011;37064;59.346;18.058;2023-09-19T15:48:16;3.45;;;1.58;;
51036;SDS011;37064;59.346;18.058;2023-09-19T15:50:43;2.80;;;1.20;;
51036;SDS011;37064;59.346;18.058;2023-09-19T15:53:09;1.92;;;0.90;;
51036;SDS011;37064;59.346;18.058;2023-09-19T15:55:39;2.78;;;0.90;;
51036;SDS011;37064;59.346;18.058;2023-09-19T15:58:05;2.25;;;0.93;;
51036;SDS011;37064;59.346;18.058;2023-09-19T16:00:32;4.55;;;1.02;;
51036;SDS011;37064;59.346;18.058;2023-09-19T16:02:59;2.55;;;0.90;;
51036;SDS011;37064;59.346;18.058;2023-09-19T16:05:26;4.15;;;1.45;;
51036;SDS011;37064;59.346;18.058;2023-09-19T16:07:52;1.98;;;0.60;;
51036;SDS011;37064;59.346;18.058;2023-09-19T16:10:18;2.53;;;1.00;;
51036;SDS011;37064;59.346;18.058;2023-09-19T16:12:45;1.85;;;0.70;;
51036;SDS011;37064;59.346;18.058;2023-09-19T16:15:11;4.43;;;1.00;;
51036;SDS011;37064;59.346;18.058;2023-09-19T16:17:39;3.05;;;1.50;;
51036;SDS011;37064;59.346;18.058;2023-09-19T16:20:05;3.67;;;1.35;;
51036;SDS011;37064;59.346;18.058;2023-09-19T16:22:37;2.75;;;1.45;;
51036;SDS011;37064;59.346;18.058;2023-09-19T16:25:03;4.20;;;1.17;;
51036;SDS011;37064;59.346;18.058;2023-09-19T16:27:29;3.55;;;1.10;;
51036;SDS011;37064;59.346;18.058;2023-09-19T16:29:55;3.90;;;1.80;;
51036;SDS011;37064;59.346;18.058;2023-09-19T16:32:21;3.10;;;0.90;;
51036;SDS011;37064;59.346;18.058;2023-09-19T16:34:47;3.42;;;1.30;;
51036;SDS011;37064;59.346;18.058;2023-09-19T16:37:13;5.20;;;1.33;;